Strathmore, New Jersey
Current Conditions -  °F | °C
As of 3:15 PM on Thursday 29 Jan 2015 (Local Time) from KLDJ Reporting Station
Overcast Overcast  
Wind Chill: 28°   Ceiling: 10000
Heat Index: 33°   Visibility: 10mi
Dew Point: 20°   Wind: 6mph
Humidity: 59%   Direction: 150°SSE
Pressure: 30.2"   Gusts: NA
Location:  40.4118°N, 74.2499°W
Report Text: KLDJ 292015Z AUTO 15005KT 10SM OVC100 01/M07 A3020 RMK AO2 T00071066
Loading
Personal Weather Stations






























Interactive Weather Map New forecast layout! Learn more

10-Day Weather Forecast

Advertisements
Track Severe Weather on mobile